createdAt,value
2023-04-23T00:00:22.162Z,95290.86
2023-04-23T00:02:54.287Z,95292.34
2023-04-23T00:05:25.880Z,95290.93
2023-04-23T00:07:55.870Z,95290.84
2023-04-23T00:10:25.031Z,95288.04
2023-04-23T00:12:53.942Z,95292.13
2023-04-23T00:15:22.779Z,95292.13
2023-04-23T00:17:51.581Z,95287.89
2023-04-23T00:20:20.370Z,95289.63
2023-04-23T00:22:49.024Z,95288.23
2023-04-23T00:25:17.772Z,95294.52
2023-04-23T00:27:47.836Z,95291.72
2023-04-23T00:30:18.210Z,95292.63
2023-04-23T00:32:47.776Z,95297.08
2023-04-23T00:35:16.645Z,95297.29
2023-04-23T00:37:45.772Z,95290.80
2023-04-23T00:40:15.060Z,95291.83
2023-04-23T00:42:44.665Z,95287.22
2023-04-23T00:45:14.047Z,95285.14
2023-04-23T00:47:42.926Z,95283.60
2023-04-23T00:50:13.260Z,95286.31
2023-04-23T00:52:42.094Z,95284.46
2023-04-23T00:55:11.305Z,95288.61
2023-04-23T00:57:40.852Z,95289.83
2023-04-23T01:00:11.702Z,95287.06
2023-04-23T01:02:41.019Z,95293.13
2023-04-23T01:05:11.531Z,95298.14
2023-04-23T01:07:40.266Z,95290.63
2023-04-23T01:10:10.084Z,95293.54
2023-04-23T01:12:38.791Z,95292.77
2023-04-23T01:15:09.079Z,95294.36
2023-04-23T01:17:38.431Z,95291.84
2023-04-23T01:20:08.471Z,95290.35
2023-04-23T01:22:40.071Z,95289.23
2023-04-23T01:25:11.969Z,95289.02
2023-04-23T01:27:41.799Z,95282.94
2023-04-23T01:30:11.674Z,95283.26
2023-04-23T01:32:42.586Z,95287.23
2023-04-23T01:35:13.302Z,95286.58
2023-04-23T01:37:43.356Z,95294.11
2023-04-23T01:40:12.424Z,95294.53
2023-04-23T01:42:42.419Z,95299.45
2023-04-23T01:45:11.747Z,95296.77
2023-04-23T01:47:42.179Z,95298.76
2023-04-23T01:50:11.085Z,95303.67
2023-04-23T01:52:41.317Z,95300.36
2023-04-23T01:55:10.624Z,95306.84
2023-04-23T01:57:39.577Z,95298.76
2023-04-23T02:00:13.714Z,95302.14
2023-04-23T02:02:44.201Z,95301.02
2023-04-23T02:05:19.086Z,95305.24
2023-04-23T02:07:49.971Z,95306.56
2023-04-23T02:10:20.646Z,95298.86
2023-04-23T02:12:49.769Z,95310.78
2023-04-23T02:15:20.067Z,95306.06
2023-04-23T02:17:50.499Z,95282.48
2023-04-23T02:20:20.414Z,95310.42
2023-04-23T02:22:50.983Z,95308.91
2023-04-23T02:25:22.117Z,95311.27
2023-04-23T02:27:51.227Z,95305.44
2023-04-23T02:30:20.539Z,95310.95
2023-04-23T02:32:50.199Z,95307.05
2023-04-23T02:35:19.404Z,95304.51
2023-04-23T02:37:48.286Z,95312.25
2023-04-23T02:40:19.640Z,95311.34
2023-04-23T02:42:48.397Z,95308.64
2023-04-23T02:45:17.248Z,95306.70
2023-04-23T02:47:46.288Z,95308.96
2023-04-23T02:50:15.204Z,95305.64
2023-04-23T02:52:46.137Z,95303.98
2023-04-23T02:55:18.095Z,95305.03
2023-04-23T02:57:48.431Z,95308.10
2023-04-23T03:00:21.910Z,95314.07
2023-04-23T03:02:58.520Z,95310.86
2023-04-23T03:05:27.095Z,95310.97
2023-04-23T03:07:57.583Z,95310.98
2023-04-23T03:10:40.514Z,95315.52
2023-04-23T03:13:10.950Z,95316.28
2023-04-23T03:15:39.810Z,95316.53
2023-04-23T03:18:10.241Z,95315.44
2023-04-23T03:23:23.633Z,95321.17
2023-04-23T03:25:53.980Z,95324.94
2023-04-23T03:34:54.511Z,95327.95
2023-04-23T03:37:12.083Z,95326.99
2023-04-23T03:39:45.160Z,95329.31
2023-04-23T03:42:15.334Z,95329.00
2023-04-23T03:44:45.494Z,95329.26
2023-04-23T03:47:19.427Z,95335.33
2023-04-23T03:49:52.611Z,95332.47
2023-04-23T03:52:23.094Z,95328.81
2023-04-23T03:54:54.163Z,95340.39
2023-04-23T03:57:24.570Z,95336.81
2023-04-23T03:59:54.960Z,95343.77
2023-04-23T04:02:25.357Z,95346.52
2023-04-23T04:04:57.389Z,95347.08
2023-04-23T04:07:28.897Z,95327.01
2023-04-23T04:09:59.162Z,95346.66
2023-04-23T04:12:29.466Z,95347.27
2023-04-23T04:14:59.814Z,95345.94
2023-04-23T04:17:32.298Z,95351.58
2023-04-23T04:20:03.168Z,95356.52
2023-04-23T04:22:34.317Z,95356.65
2023-04-23T04:25:04.788Z,95354.76
2023-04-23T04:32:01.789Z,95352.84
2023-04-23T04:34:38.036Z,95354.34
2023-04-23T04:37:11.277Z,95355.91
2023-04-23T04:39:46.931Z,95360.41
2023-04-23T04:42:21.538Z,95362.31
2023-04-23T04:44:52.769Z,95358.86
2023-04-23T04:47:28.079Z,95363.70
2023-04-23T04:49:59.800Z,95373.53
2023-04-23T04:52:31.808Z,95374.50
2023-04-23T04:55:06.597Z,95370.92
2023-04-23T04:57:39.851Z,95380.67
2023-04-23T05:00:13.635Z,95381.95
2023-04-23T05:02:44.097Z,95378.62
2023-04-23T05:05:14.634Z,95377.03
2023-04-23T05:07:47.709Z,95381.08
2023-04-23T05:10:17.349Z,95383.53
2023-04-23T05:12:47.820Z,95384.09
2023-04-23T05:15:22.145Z,95382.02
2023-04-23T05:17:52.527Z,95381.62
2023-04-23T05:20:24.555Z,95383.22
2023-04-23T05:22:56.934Z,95383.48
2023-04-23T05:25:28.769Z,95384.36
2023-04-23T05:28:03.272Z,95386.42
2023-04-23T05:30:32.385Z,95386.53
2023-04-23T05:33:02.443Z,95387.92
2023-04-23T05:35:35.296Z,95391.86
2023-04-23T05:38:09.249Z,95391.19
2023-04-23T05:40:39.669Z,95393.52
2023-04-23T05:43:10.050Z,95399.88
2023-04-23T05:45:45.929Z,95392.68
2023-04-23T05:48:27.256Z,95393.81
2023-04-23T05:50:57.683Z,95396.22
2023-04-23T05:53:28.329Z,95397.56
2023-04-23T05:55:58.555Z,95395.30
2023-04-23T05:59:19.467Z,95400.38
2023-04-23T06:01:09.198Z,95402.98
2023-04-23T06:03:39.839Z,95395.59
2023-04-23T06:06:10.387Z,95399.38
2023-04-23T06:08:45.444Z,95403.59
2023-04-23T06:11:19.024Z,95399.77
2023-04-23T06:13:49.583Z,95395.84
2023-04-23T06:16:24.193Z,95392.64
2023-04-23T06:18:54.573Z,95394.91
2023-04-23T06:21:28.231Z,95390.59
2023-04-23T06:24:01.165Z,95395.01
2023-04-23T06:26:31.648Z,95391.97
2023-04-23T06:29:03.134Z,95393.30
2023-04-23T06:31:33.589Z,95385.81
2023-04-23T06:34:03.963Z,95392.88
2023-04-23T06:36:32.499Z,95388.48
2023-04-23T06:39:02.074Z,95390.05
2023-04-23T06:41:30.756Z,95385.62
2023-04-23T06:44:00.920Z,95393.73
2023-04-23T06:46:31.283Z,95390.66
2023-04-23T06:49:04.790Z,95387.47
2023-04-23T06:51:33.754Z,95386.52
2023-04-23T06:54:06.995Z,95387.25
2023-04-23T06:56:38.541Z,95388.30
2023-04-23T06:59:08.013Z,95387.33
2023-04-23T07:01:40.072Z,95381.98
2023-04-23T07:04:11.579Z,95382.31
2023-04-23T07:06:41.963Z,95382.59
2023-04-23T07:09:13.434Z,95377.44
2023-04-23T07:11:46.573Z,95385.62
2023-04-23T07:14:16.567Z,95386.39
2023-04-23T07:16:45.451Z,95385.72
2023-04-23T07:19:17.126Z,95382.91
2023-04-23T07:21:47.184Z,95388.05
2023-04-23T07:24:17.521Z,95379.08
2023-04-23T07:26:49.901Z,95378.99
2023-04-23T07:29:20.146Z,95378.92
2023-04-23T07:31:49.015Z,95375.52
2023-04-23T07:34:19.414Z,95377.67
2023-04-23T07:36:56.637Z,95367.20
2023-04-23T07:39:32.894Z,95372.64
2023-04-23T07:42:09.046Z,95372.63
2023-04-23T07:44:48.322Z,95368.79
2023-04-23T07:47:19.041Z,95373.78
2023-04-23T07:49:49.476Z,95374.50
2023-04-23T07:52:27.157Z,95375.83
2023-04-23T07:54:57.461Z,95385.20
2023-04-23T07:57:28.199Z,95378.70
2023-04-23T07:59:59.579Z,95379.98
2023-04-23T08:02:31.880Z,95370.95
2023-04-23T08:05:11.873Z,95374.54
2023-04-23T08:07:45.559Z,95379.11
2023-04-23T08:10:15.834Z,95373.72
2023-04-23T08:12:45.233Z,95364.59
2023-04-23T08:15:15.514Z,95366.44
2023-04-23T08:17:44.368Z,95365.25
2023-04-23T08:20:13.159Z,95363.38
2023-04-23T08:22:44.280Z,95370.80
2023-04-23T08:25:13.401Z,95377.65
2023-04-23T08:27:42.055Z,95368.15
2023-04-23T08:30:12.708Z,95362.16
2023-04-23T08:32:42.324Z,95357.23
2023-04-23T08:35:11.213Z,95357.35
2023-04-23T08:37:43.439Z,95357.50
2023-04-23T08:40:13.840Z,95351.66
2023-04-23T08:42:51.648Z,95350.34
2023-04-23T08:45:23.785Z,95356.64
2023-04-23T08:47:54.267Z,95347.70
2023-04-23T08:50:26.847Z,95349.06
2023-04-23T08:52:58.184Z,95335.23
2023-04-23T08:55:27.525Z,95339.41
2023-04-23T08:58:11.937Z,95343.66
2023-04-23T09:00:40.771Z,95335.41
2023-04-23T09:03:10.892Z,95334.41
2023-04-23T09:05:43.077Z,95336.86
2023-04-23T09:08:12.497Z,95324.47
2023-04-23T09:10:43.546Z,95329.80
2023-04-23T09:13:14.363Z,95330.38
2023-04-23T09:15:45.978Z,95329.73
2023-04-23T09:18:14.977Z,95328.58
2023-04-23T09:20:45.214Z,95326.20
2023-04-23T09:23:16.699Z,95325.12
2023-04-23T09:25:45.383Z,95320.33
2023-04-23T09:28:15.220Z,95322.92
2023-04-23T09:30:51.985Z,95312.48
2023-04-23T09:33:20.685Z,95319.82
2023-04-23T09:35:50.370Z,95318.25
2023-04-23T09:38:20.884Z,95317.03
2023-04-23T09:40:51.371Z,95307.47
2023-04-23T09:43:19.982Z,95301.31
2023-04-23T09:45:51.612Z,95291.93
2023-04-23T09:48:29.572Z,95293.63
2023-04-23T09:50:58.285Z,95292.63
2023-04-23T09:53:29.176Z,95291.06
2023-04-23T09:55:59.429Z,95283.19
2023-04-23T10:01:46.874Z,95272.38
2023-04-23T10:04:23.937Z,95272.66
2023-04-23T10:09:44.682Z,95270.89
2023-04-23T10:14:49.109Z,95266.40
2023-04-23T10:17:19.216Z,95265.96
2023-04-23T10:20:41.854Z,95257.95
2023-04-23T10:22:44.199Z,95256.53
2023-04-23T10:25:14.393Z,95254.01
2023-04-23T10:27:54.043Z,95245.16
2023-04-23T10:30:22.039Z,95238.52
2023-04-23T10:32:51.744Z,95242.94
2023-04-23T10:35:20.680Z,95235.48
2023-04-23T10:37:50.319Z,95219.84
2023-04-23T10:40:24.794Z,95226.68
2023-04-23T10:42:53.770Z,95232.87
2023-04-23T10:45:25.406Z,95226.30
2023-04-23T10:47:58.058Z,95229.22
2023-04-23T10:50:32.877Z,95216.88
2023-04-23T10:53:02.949Z,95215.77
2023-04-23T10:55:33.782Z,95215.86
2023-04-23T10:58:20.960Z,95213.20
2023-04-23T11:00:50.992Z,95208.42
2023-04-23T11:03:32.328Z,95206.37
2023-04-23T11:06:06.715Z,95197.81
2023-04-23T11:08:38.637Z,95198.70
2023-04-23T11:11:12.418Z,95198.80
2023-04-23T11:13:44.056Z,95191.37
2023-04-23T11:16:21.563Z,95180.58
2023-04-23T11:19:05.333Z,95180.06
2023-04-23T11:21:56.210Z,95173.03
2023-04-23T11:24:25.732Z,95159.23
2023-04-23T11:26:54.649Z,95161.56
2023-04-23T11:29:26.455Z,95157.84
2023-04-23T11:34:27.046Z,95161.46
2023-04-23T11:39:35.417Z,95158.86
2023-04-23T11:42:05.755Z,95153.86
2023-04-23T11:44:34.515Z,95157.55
2023-04-23T11:47:03.243Z,95154.68
2023-04-23T11:49:32.006Z,95146.75
2023-04-23T11:52:02.021Z,95144.80
2023-04-23T11:54:33.467Z,95144.73
2023-04-23T11:57:04.631Z,95145.39
2023-04-23T11:59:33.405Z,95140.70
2023-04-23T12:02:02.095Z,95138.69
2023-04-23T12:04:32.373Z,95133.77
2023-04-23T12:07:04.280Z,95128.52
2023-04-23T12:09:31.912Z,95131.93
2023-04-23T12:12:00.587Z,95129.98
2023-04-23T12:14:31.251Z,95125.83
2023-04-23T12:17:02.270Z,95126.52
2023-04-23T12:19:32.039Z,95132.39
2023-04-23T12:22:08.397Z,95127.40
2023-04-23T12:24:52.731Z,95127.08
2023-04-23T12:27:58.956Z,95120.05
2023-04-23T12:30:03.494Z,95116.84
2023-04-23T12:32:34.808Z,95116.67
2023-04-23T12:35:10.371Z,95108.90
2023-04-23T12:37:51.129Z,95112.55
2023-04-23T12:40:19.845Z,95105.91
2023-04-23T12:42:48.432Z,95105.81
2023-04-23T12:45:17.100Z,95104.53
2023-04-23T12:47:46.108Z,95107.66
2023-04-23T12:50:14.823Z,95104.54
2023-04-23T12:52:44.355Z,95101.78
2023-04-23T12:55:13.082Z,95103.91
2023-04-23T12:57:41.634Z,95103.30
2023-04-23T13:00:13.292Z,95102.50
2023-04-23T13:02:42.125Z,95104.08
2023-04-23T13:05:11.052Z,95100.00
2023-04-23T13:07:39.819Z,95099.13
2023-04-23T13:10:09.192Z,95102.91
2023-04-23T13:12:37.898Z,95100.96
2023-04-23T13:15:07.276Z,95051.92
2023-04-23T13:17:36.430Z,95095.83
2023-04-23T13:20:05.611Z,95091.12
2023-04-23T13:22:34.280Z,95088.09
2023-04-23T13:25:04.229Z,95093.75
2023-04-23T13:27:32.894Z,95089.34
2023-04-23T13:30:02.528Z,95086.92
2023-04-23T13:32:32.645Z,95090.56
2023-04-23T13:35:03.261Z,95088.31
2023-04-23T13:37:32.773Z,95082.16
2023-04-23T13:40:01.387Z,95079.29
2023-04-23T13:42:29.943Z,95071.05
2023-04-23T13:44:58.496Z,95069.91
2023-04-23T13:47:29.711Z,95067.58
2023-04-23T13:49:58.497Z,95069.26
2023-04-23T13:52:27.107Z,95064.92
2023-04-23T13:54:57.280Z,95071.16
2023-04-23T13:57:27.609Z,95065.73
2023-04-23T13:59:57.008Z,95063.25
2023-04-23T14:02:25.936Z,95072.39
2023-04-23T14:04:54.805Z,95077.03
2023-04-23T14:07:23.694Z,95069.93
2023-04-23T14:09:53.007Z,95078.86
2023-04-23T14:12:21.856Z,95073.04
2023-04-23T14:14:50.929Z,95069.24
2023-04-23T14:17:19.571Z,95072.66
2023-04-23T14:19:49.969Z,95069.89
2023-04-23T14:22:18.700Z,95065.25
2023-04-23T14:24:49.573Z,95041.49
2023-04-23T14:27:18.530Z,95060.28
2023-04-23T14:29:49.663Z,95060.63
2023-04-23T14:32:18.516Z,95062.14
2023-04-23T14:34:47.119Z,95062.00
2023-04-23T14:37:17.612Z,95064.28
2023-04-23T14:39:47.061Z,95062.63
2023-04-23T14:42:15.963Z,95053.46
2023-04-23T14:44:46.188Z,95036.88
2023-04-23T14:47:16.040Z,95053.89
2023-04-23T14:49:46.147Z,95055.69
2023-04-23T14:52:14.869Z,95065.80
2023-04-23T14:54:43.429Z,95053.13
2023-04-23T14:57:14.945Z,95050.19
2023-04-23T14:59:44.485Z,95059.27
2023-04-23T15:02:13.376Z,95060.48
2023-04-23T15:04:42.093Z,95054.59
2023-04-23T15:07:12.922Z,95051.38
2023-04-23T15:09:41.860Z,95051.52
2023-04-23T15:12:13.622Z,95051.09
2023-04-23T15:14:44.477Z,95050.09
2023-04-23T15:17:14.699Z,95054.28
2023-04-23T15:19:43.673Z,95053.31
2023-04-23T15:22:12.535Z,95048.66
2023-04-23T15:24:43.166Z,95046.58
2023-04-23T15:27:13.773Z,95038.58
2023-04-23T15:29:42.969Z,95043.73
2023-04-23T15:32:12.303Z,95040.16
2023-04-23T15:34:43.895Z,95042.33
2023-04-23T15:37:12.512Z,95038.00
2023-04-23T15:39:41.285Z,95040.38
2023-04-23T15:42:11.462Z,95038.97
2023-04-23T15:44:40.292Z,95035.50
2023-04-23T15:47:09.171Z,95035.86
2023-04-23T15:49:37.784Z,95028.73
2023-04-23T15:52:09.579Z,95030.31
2023-04-23T15:54:40.990Z,95035.98
2023-04-23T15:57:09.630Z,95034.90
2023-04-23T15:59:44.390Z,95027.84
2023-04-23T16:05:20.493Z,95027.25
2023-04-23T16:07:42.333Z,95025.59
2023-04-23T16:10:24.304Z,95025.20
2023-04-23T16:13:17.302Z,95033.02
2023-04-23T16:15:50.670Z,95024.27
2023-04-23T16:18:57.143Z,95023.33
2023-04-23T16:21:30.880Z,95027.03
2023-04-23T16:24:00.893Z,95028.22
2023-04-23T16:26:37.126Z,95018.70
2023-04-23T16:29:21.572Z,95025.74
2023-04-23T16:31:41.143Z,95022.64
2023-04-23T16:34:12.539Z,95023.11
2023-04-23T16:36:43.082Z,95019.25
2023-04-23T16:39:11.882Z,95026.70
2023-04-23T16:41:40.617Z,95027.80
2023-04-23T16:44:09.352Z,95025.69
2023-04-23T16:46:38.495Z,95028.79
2023-04-23T16:49:08.311Z,95027.22
2023-04-23T16:51:36.957Z,95034.98
2023-04-23T16:54:06.321Z,95031.92
2023-04-23T16:56:35.194Z,95032.86
2023-04-23T16:59:07.676Z,95030.66
2023-04-23T17:01:36.263Z,95025.72
2023-04-23T17:04:05.313Z,95026.98
2023-04-23T17:06:34.874Z,95029.83
2023-04-23T17:09:05.810Z,95033.80
2023-04-23T17:11:34.576Z,95031.64
2023-04-23T17:14:04.728Z,95031.78
2023-04-23T17:16:33.435Z,95037.59
2023-04-23T17:19:02.179Z,95043.80
2023-04-23T17:21:32.361Z,95035.72
2023-04-23T17:24:01.062Z,95038.59
2023-04-23T17:26:29.827Z,95036.56
2023-04-23T17:28:58.620Z,95041.42
2023-04-23T17:31:27.316Z,95033.80
2023-04-23T17:33:56.584Z,95041.14
2023-04-23T17:36:25.161Z,95043.32
2023-04-23T17:38:53.723Z,95052.00
2023-04-23T17:41:22.876Z,95050.11
2023-04-23T17:43:51.973Z,95051.64
2023-04-23T17:46:26.620Z,95057.81
2023-04-23T17:48:55.825Z,95059.80
2023-04-23T17:51:24.572Z,95062.53
2023-04-23T17:53:56.092Z,95061.20
2023-04-23T17:59:29.294Z,95070.80
2023-04-23T18:02:12.399Z,95074.89
2023-04-23T18:04:46.186Z,95076.09
2023-04-23T18:07:17.112Z,95079.75
2023-04-23T18:09:47.891Z,95085.52
2023-04-23T18:12:17.296Z,95092.41
2023-04-23T18:14:49.433Z,95090.88
2023-04-23T18:17:19.786Z,95096.10
2023-04-23T18:19:55.985Z,95094.97
2023-04-23T18:22:26.364Z,95096.14
2023-04-23T18:24:55.746Z,95097.52
2023-04-23T18:27:25.299Z,95100.04
2023-04-23T18:29:54.010Z,95103.48
2023-04-23T18:32:33.656Z,95107.31
2023-04-23T18:34:56.899Z,95026.73
2023-04-23T18:37:47.465Z,95106.22
2023-04-23T18:40:16.312Z,95116.75
2023-04-23T18:42:45.161Z,95120.42
2023-04-23T18:45:14.198Z,95122.14
2023-04-23T18:47:51.889Z,95123.30
2023-04-23T18:50:57.901Z,95125.02
2023-04-23T18:53:31.317Z,95124.48
2023-04-23T18:56:00.101Z,95130.02
2023-04-23T18:58:30.353Z,95123.89
2023-04-23T19:01:02.512Z,95129.08
2023-04-23T19:03:32.990Z,95128.70
2023-04-23T19:06:03.519Z,95134.81
2023-04-23T19:08:32.146Z,95129.65
2023-04-23T19:11:23.574Z,95135.38
2023-04-23T19:13:52.276Z,95132.70
2023-04-23T19:16:21.006Z,95126.98
2023-04-23T19:18:49.658Z,95133.48
2023-04-23T19:21:18.543Z,95132.52
2023-04-23T19:23:47.309Z,95134.44
2023-04-23T19:26:21.338Z,95130.03
2023-04-23T19:28:50.114Z,95128.13
2023-04-23T19:31:21.648Z,95132.33
2023-04-23T19:33:50.586Z,95099.25
2023-04-23T19:36:19.281Z,95128.50
2023-04-23T19:38:47.821Z,95135.77
2023-04-23T19:41:20.993Z,95133.47
2023-04-23T19:43:47.319Z,95129.83
2023-04-23T19:46:16.229Z,95131.55
2023-04-23T19:48:46.512Z,95135.55
2023-04-23T19:51:15.413Z,95132.69
2023-04-23T19:53:46.789Z,95134.00
2023-04-23T19:56:18.423Z,95137.25
2023-04-23T19:59:00.390Z,95133.96
2023-04-23T20:01:20.878Z,95131.46
2023-04-23T20:03:51.257Z,95132.23
2023-04-23T20:06:19.911Z,95083.77
2023-04-23T20:09:08.608Z,95137.16
2023-04-23T20:11:40.121Z,95134.49
2023-04-23T20:14:09.019Z,95128.53
2023-04-23T20:16:37.922Z,95137.66
2023-04-23T20:19:08.747Z,95136.16
2023-04-23T20:21:38.270Z,95137.45
2023-04-23T20:24:14.528Z,95133.80
2023-04-23T20:26:43.841Z,95134.75
2023-04-23T20:29:12.692Z,95129.95
2023-04-23T20:31:42.489Z,95129.76
2023-04-23T20:34:11.084Z,95131.09
2023-04-23T20:36:42.436Z,95132.40
2023-04-23T20:39:11.057Z,95126.86
2023-04-23T20:41:42.950Z,95045.55
2023-04-23T20:44:17.982Z,95130.45
2023-04-23T20:46:53.588Z,95138.84
2023-04-23T20:49:22.487Z,95135.73
2023-04-23T20:51:52.339Z,95127.11
2023-04-23T20:54:21.203Z,95127.10
2023-04-23T20:56:51.496Z,95133.97
2023-04-23T20:59:23.703Z,95132.03
2023-04-23T21:01:52.547Z,95056.77
2023-04-23T21:04:21.438Z,95136.74
2023-04-23T21:06:51.985Z,95136.51
2023-04-23T21:09:22.278Z,95143.70
2023-04-23T21:11:51.210Z,95145.95
2023-04-23T21:14:20.008Z,95149.75
2023-04-23T21:16:49.796Z,95152.38
2023-04-23T21:19:18.354Z,95149.89
2023-04-23T21:21:46.897Z,95149.52
2023-04-23T21:24:15.474Z,95145.50
2023-04-23T21:26:44.645Z,95140.36
2023-04-23T21:29:13.302Z,95140.13
2023-04-23T21:31:47.362Z,95133.36
2023-04-23T21:34:17.202Z,95143.56
2023-04-23T21:36:46.473Z,95152.66
2023-04-23T21:39:15.302Z,95150.73
2023-04-23T21:41:45.262Z,95152.09
2023-04-23T21:44:14.214Z,95151.70
2023-04-23T21:46:44.320Z,95155.80
2023-04-23T21:49:14.478Z,95148.77
2023-04-23T21:51:43.124Z,95162.58
2023-04-23T21:54:14.620Z,95162.48
2023-04-23T21:56:47.456Z,95162.30
2023-04-23T21:59:16.210Z,95163.82
2023-04-23T22:01:44.891Z,95167.48
2023-04-23T22:04:15.850Z,95170.30
2023-04-23T22:06:47.986Z,95171.77
2023-04-23T22:09:19.579Z,95178.02
2023-04-23T22:12:01.159Z,95176.96
2023-04-23T22:14:23.128Z,95103.31
2023-04-23T22:16:52.448Z,95177.14
2023-04-23T22:19:21.235Z,95173.16
2023-04-23T22:21:49.872Z,95171.70
2023-04-23T22:24:18.588Z,95175.31
2023-04-23T22:26:47.666Z,95168.31
2023-04-23T22:29:16.617Z,95167.00
2023-04-23T22:31:45.261Z,95175.48
2023-04-23T22:34:14.059Z,95169.53
2023-04-23T22:36:43.388Z,95158.67
2023-04-23T22:39:13.184Z,95145.51
2023-04-23T22:41:42.026Z,95147.47
2023-04-23T22:44:13.093Z,95137.82
2023-04-23T22:46:42.103Z,95137.28
2023-04-23T22:49:16.464Z,95130.23
2023-04-23T22:51:45.218Z,95118.02
2023-04-23T22:54:13.882Z,95122.18
2023-04-23T22:56:42.758Z,95120.70
2023-04-23T22:59:13.330Z,95130.61
2023-04-23T23:01:42.551Z,95127.59
2023-04-23T23:04:13.064Z,95122.83
2023-04-23T23:06:43.353Z,95128.16
2023-04-23T23:09:12.337Z,95135.95
2023-04-23T23:11:41.272Z,95156.78
2023-04-23T23:14:10.080Z,95163.61
2023-04-23T23:16:38.802Z,95172.05
2023-04-23T23:19:08.235Z,95162.13
2023-04-23T23:21:36.922Z,95166.16
2023-04-23T23:24:06.139Z,95154.97
2023-04-23T23:26:34.750Z,95148.70
2023-04-23T23:29:03.697Z,95139.16
2023-04-23T23:31:32.506Z,95130.95
2023-04-23T23:34:01.367Z,95125.97
2023-04-23T23:36:31.892Z,95118.31
2023-04-23T23:39:01.038Z,95115.23
2023-04-23T23:41:29.870Z,95119.05
2023-04-23T23:43:58.692Z,95121.11
2023-04-23T23:46:27.687Z,95116.69
2023-04-23T23:48:56.772Z,95115.09
2023-04-23T23:51:25.618Z,95117.91
2023-04-23T23:53:54.562Z,95106.09
2023-04-23T23:56:23.328Z,95105.52
2023-04-23T23:58:52.027Z,95102.09
